Flight Track Log - Related Links

Times and Time Zones

All times are in EDT time to prevent confusion due to time zone crossing. See the UCA4784 flight status page for this flight to view local times or setup timezone preferences in your user account.

Time Position Orientation Groundspeed Altitude Reporting Facility
EDT Latitude Longitude Course Direction KTS MPH feet Rate Location/Type
Fri 09:56:12 AM 41.7431 -71.4478 265° West 172 198 1,200  Level Boston Center
Fri 09:57:01 AM 41.7378 -71.5075 263° West 189 217 2,500 1,459 Climbing Boston Center
Fri 09:58:03 AM 41.7325 -71.5739 264° West 182 209 3,900 1,271 Climbing Boston Center
Fri 09:58:26 AM 41.7303 -71.6047 264° West 205 236 4,300 1,377 Climbing Boston Center
Fri 09:59:04 AM 41.7250 -71.6550 262° West 207 238 5,300 1,380 Climbing Boston Center
Fri 10:00:06 AM 41.7197 -71.7289 265° West 202 232 6,600 1,210 Climbing Boston Center
Fri 10:01:00 AM 41.6765 -71.9812 265° West  Level FlightAware Approximate
Fri 10:01:08 AM 41.7106 -71.8100 261° West 203 234 7,800  Level Boston Center
Fri 10:01:28 AM 41.7078 -71.8389 263° West 213 245 8,000 197 Climbing Boston Center
Fri 10:02:09 AM 41.7050 -71.8947 266° West 227 261 8,000  Level Boston Center
Fri 10:02:29 AM 41.7019 -71.9292 263° West 258 297 8,000  Level Boston Center
Fri 10:03:12 AM 41.6939 -71.9997 261° West 262 302 8,000  Level Boston Center
Fri 10:04:07 AM 41.6836 -72.0853 261° West 264 304 8,000 -52 Level Boston Center
Fri 10:05:07 AM 41.6586 -72.1800 251° West 266 306 7,900 -50 Descending Boston Center
Fri 10:06:08 AM 41.6342 -72.2719 250° West 261 300 7,900  Level Boston Center
Fri 10:07:09 AM 41.6100 -72.3611 250° West 264 304 7,900 -148 Level Boston Center
Fri 10:08:10 AM 41.5869 -72.4564 252° West 264 304 7,600 -591 Descending Boston Center
Fri 10:09:21 AM 41.5550 -72.5736 250° West 270 311 6,600 -722 Descending Boston Center
Fri 10:10:23 AM 41.5294 -72.6708 251° West 275 316 6,000 -341 Descending Boston Center
Fri 10:11:24 AM 41.5039 -72.7617 249° West 267 307 5,900 -49 Descending Boston Center
Fri 10:12:26 AM 41.4789 -72.8567 251° West 258 297 5,900  Level Boston Center
Fri 10:13:28 AM 41.4544 -72.9461 250° West 257 296 5,900 49 Level Boston Center
Fri 10:14:29 AM 41.4303 -73.0356 250° West 257 296 6,000 49 Climbing Boston Center
Fri 10:15:31 AM 41.4033 -73.1306 249° West 257 296 6,000  Level Boston Center
Fri 10:16:33 AM 41.3800 -73.2194 251° West 255 293 6,000  Level Boston Center
Fri 10:17:34 AM 41.3550 -73.3075 249° West 255 293 6,000  Level Boston Center
Fri 10:18:36 AM 41.3297 -73.4025 251° West 255 293 6,000  Level Boston Center
Fri 10:19:37 AM 41.3042 -73.4911 249° West 256 295 6,000  Level Boston Center
Fri 10:20:39 AM 41.2783 -73.5875 250° West 256 295 6,000  Level Boston Center
Fri 10:21:41 AM 41.2711 -73.6811 264° West 256 295 6,000 -145 Level Boston Center
Fri 10:22:43 AM 41.2622 -73.7733 263° West 254 292 5,700 -488 Descending Boston Center
Fri 10:23:44 AM 41.2528 -73.8758 263° West 257 296 5,000 -390 Descending Boston Center
Fri 10:24:46 AM 41.2436 -73.9689 263° West 257 296 4,900  Descending Boston Center
Fri 10:25:48 AM 41.2342 -74.0608 262° West 255 293 5,000 49 Climbing Boston Center
Fri 10:26:49 AM 41.1931 -74.1450 237° Southwest 253 291 5,000  Level Boston Center
Fri 10:27:51 AM 41.1469 -74.2144 229° Southwest 253 291 5,000 49 Level Boston Center
Fri 10:28:52 AM 41.1000 -74.2833 228° Southwest 252 290 5,100 50 Climbing New York TRACON
Fri 10:29:52 AM 41.0500 -74.3500 225° Southwest 256 295 5,100  Level New York TRACON
Fri 10:30:52 AM 41.0167 -74.4167 236° Southwest 247 284 5,100  Level New York TRACON
Fri 10:31:52 AM 41.0000 -74.5167 258° West 245 282 5,100  Level New York TRACON
Fri 10:32:52 AM 40.9667 -74.5833 237° Southwest 255 293 5,100  Level New York TRACON
Fri 10:33:52 AM 40.9000 -74.6167 201° Southwest 257 296 5,100  Level New York TRACON
Fri 10:34:52 AM 40.8500 -74.5833 153° Southeast 259 298 5,100  Level New York TRACON
Fri 10:35:52 AM 40.7833 -74.5500 159° South 268 308 5,100  Level New York TRACON
Fri 10:36:52 AM 40.7167 -74.5833 201° Southwest 259 298 5,100  Level New York TRACON
Fri 10:37:52 AM 40.6333 -74.5833 180° South 248 285 5,100  Level New York TRACON
Fri 10:38:52 AM 40.5667 -74.5833 180° South 244 281 5,100  Level New York TRACON
Fri 10:39:52 AM 40.5000 -74.5833 180° South 242 278 5,100  Level New York TRACON
Fri 10:40:53 AM 40.4333 -74.5667 169° South 237 273 5,100  Level New York TRACON
Fri 10:41:53 AM 40.3667 -74.5667 180° South 241 277 5,100 -350 Level New York TRACON
Fri 10:42:53 AM 40.3500 -74.4833 105° East 233 268 4,400 -950 Descending New York TRACON
Fri 10:43:53 AM 40.3667 -74.4167 72° East 216 249 3,200 -650 Descending New York TRACON
Fri 10:44:53 AM 40.4167 -74.3667 37° Northeast 216 249 3,100 -50 Descending New York TRACON
Fri 10:45:53 AM 40.4667 -74.3333 27° Northeast 218 251 3,100  Level New York TRACON
Fri 10:46:53 AM 40.5167 -74.2833 37° Northeast 203 234 3,100 -200 Level New York TRACON
Fri 10:47:53 AM 40.5667 -74.2500 27° Northeast 185 213 2,700 -700 Descending New York TRACON
Fri 10:48:53 AM 40.6000 -74.2167 37° Northeast 178 205 1,700 -950 Descending New York TRACON
Fri 10:49:53 AM 40.6500 -74.2000 14° North 150 173 800 -900 Descending New York TRACON
Fri 10:51:00 AM 40.6833 -74.1667 90° East  Level FlightAware Approximate

Login

Don't have an account? Register now (free) for customized features, flight alerts, and more!